Time;durP1;ratioP1;P1;durP2;ratioP2;P2;SDS_P1;SDS_P2;PMS_P1;PMS_P2;Temp;Humidity;BMP_temperature;BMP_pressure;BME280_temperature;BME280_humidity;BME280_pressure;Samples;Min_cycle;Max_cycle;Signal;HPM_P1;HPM_P2
2023/11/14 00:57:51;;;;;;;32.30;19.67;;;;;;;;;;6297762;22;20018;-94
2023/11/14 01:03:00;;;;;;;28.77;18.67;;;;;;;;;;6260228;22;20027;-96
2023/11/14 01:11:52;;;;;;;34.10;21.33;;;;;;;;;;6286849;22;20349;-96
2023/11/14 01:17:48;;;;;;;32.88;20.25;;;;;;;;;;6272547;22;20054;-96
2023/11/14 02:17:28;;;;;;;32.97;22.13;;;;;;;;;;6253168;22;20044;-96
2023/11/14 02:22:58;;;;;;;28.33;19.43;;;;;;;;;;6260850;22;20030;-93
2023/11/14 02:47:24;;;;;;;29.40;19.47;;;;;;;;;;6264647;22;20011;-94
2023/11/14 03:19:29;;;;;;;34.83;20.90;;;;;;;;;;6265668;23;20006;-96
2023/11/14 04:31:19;;;;;;;36.10;22.00;;;;;;;;;;6111440;23;20017;-96
2023/11/14 04:49:31;;;;;;;45.35;27.45;;;;;;;;;;6193661;23;20045;-95
2023/11/14 04:52:03;;;;;;;29.65;21.10;;;;;;;;;;6190762;23;20473;-95
2023/11/14 04:54:48;;;;;;;17.55;12.90;;;;;;;;;;6193967;23;20005;-96
2023/11/14 04:57:23;;;;;;;30.83;20.02;;;;;;;;;;6189233;23;20025;-96
2023/11/14 04:59:52;;;;;;;33.63;21.88;;;;;;;;;;6192289;23;20005;-96
2023/11/14 05:29:13;;;;;;;19.33;13.52;;;;;;;;;;6281645;22;20083;-96
2023/11/14 05:44:16;;;;;;;19.05;11.68;;;;;;;;;;6284576;22;20049;-96
2023/11/14 06:04:21;;;;;;;27.10;15.95;;;;;;;;;;6291856;22;20054;-96
2023/11/14 06:06:47;;;;;;;31.70;18.38;;;;;;;;;;6261220;22;20479;-95
2023/11/14 06:12:43;;;;;;;205.13;99.72;;;;;;;;;;6291253;22;20014;-93
2023/11/14 06:18:12;;;;;;;46.25;24.05;;;;;;;;;;6284358;22;20038;-96
2023/11/14 06:23:14;;;;;;;22.48;14.57;;;;;;;;;;5592992;22;15131991;-94
2023/11/14 06:34:17;;;;;;;38.83;21.90;;;;;;;;;;6269817;22;20023;-96
2023/11/14 06:36:47;;;;;;;35.17;20.17;;;;;;;;;;6264308;22;20015;-95
2023/11/14 07:25:53;;;;;;;14.30;11.68;;;;;;;;;;6271332;22;20026;-94
2023/11/14 07:28:33;;;;;;;17.77;15.90;;;;;;;;;;6225891;22;20043;-96
2023/11/14 07:30:59;;;;;;;19.23;15.48;;;;;;;;;;6192008;22;20054;-96
2023/11/14 07:33:26;;;;;;;21.48;17.65;;;;;;;;;;6233440;22;20054;-96
2023/11/14 07:35:52;;;;;;;23.83;17.70;;;;;;;;;;6236479;22;20015;-95
2023/11/14 07:41:22;;;;;;;21.55;16.25;;;;;;;;;;6252322;22;20034;-92
2023/11/14 07:44:00;;;;;;;16.88;13.07;;;;;;;;;;6255653;23;20054;-96
2023/11/14 07:46:26;;;;;;;17.90;11.93;;;;;;;;;;6251519;22;20023;-93
2023/11/14 07:51:28;;;;;;;20.50;15.80;;;;;;;;;;6250897;22;20027;-96
2023/11/14 07:53:55;;;;;;;19.77;15.23;;;;;;;;;;6252343;23;20426;-95
2023/11/14 07:56:21;;;;;;;15.93;11.27;;;;;;;;;;6251931;23;20034;-95
2023/11/14 07:58:48;;;;;;;8.00;5.00;;;;;;;;;;6250767;23;20000;-93
2023/11/14 08:01:18;;;;;;;3.88;1.17;;;;;;;;;;6280922;22;20004;-93
2023/11/14 08:04:17;;;;;;;6.40;1.50;;;;;;;;;;6286435;22;20448;-96
2023/11/14 08:06:47;;;;;;;5.75;1.63;;;;;;;;;;6262340;22;20035;-96
2023/11/14 08:12:20;;;;;;;5.55;1.55;;;;;;;;;;6291697;22;20053;-92
2023/11/14 08:14:47;;;;;;;5.00;1.30;;;;;;;;;;6258416;22;20003;-92
2023/11/14 08:17:19;;;;;;;3.13;1.27;;;;;;;;;;6259763;22;20011;-91
2023/11/14 08:22:42;;;;;;;3.42;1.45;;;;;;;;;;6166547;23;20466;-96
2023/11/14 08:27:36;;;;;;;3.28;1.90;;;;;;;;;;6255290;22;20031;-94
2023/11/14 08:30:02;;;;;;;3.72;2.28;;;;;;;;;;6232169;22;20114;-92
2023/11/14 08:41:15;;;;;;;3.72;1.90;;;;;;;;;;6269626;22;20543;-96
2023/11/14 08:43:57;;;;;;;5.47;2.13;;;;;;;;;;6249868;22;20023;-93
2023/11/14 08:52:12;;;;;;;6.43;2.38;;;;;;;;;;6278612;22;20119;-93
2023/11/14 08:57:48;;;;;;;5.20;1.67;;;;;;;;;;6297487;22;20015;-96
2023/11/14 09:00:18;;;;;;;4.03;1.37;;;;;;;;;;6272008;22;20336;-96
2023/11/14 09:02:50;;;;;;;8.35;1.98;;;;;;;;;;6266830;22;20433;-96
2023/11/14 09:08:20;;;;;;;4.00;1.38;;;;;;;;;;6286198;22;20010;-92
2023/11/14 09:14:02;;;;;;;4.40;1.45;;;;;;;;;;6281616;22;20035;-95
2023/11/14 09:17:03;;;;;;;4.93;1.80;;;;;;;;;;6258975;22;20337;-93
2023/11/14 09:28:25;;;;;;;5.47;1.87;;;;;;;;;;6278673;22;20014;-92
2023/11/14 09:31:02;;;;;;;5.40;1.40;;;;;;;;;;6249233;22;20259;-92
2023/11/14 09:33:29;;;;;;;4.32;1.48;;;;;;;;;;6231463;23;20014;-94
2023/11/14 09:51:22;;;;;;;4.18;1.73;;;;;;;;;;6290694;22;20048;-94
2023/11/14 09:53:57;;;;;;;7.68;2.30;;;;;;;;;;6263280;22;20034;-94
2023/11/14 09:56:23;;;;;;;5.18;1.92;;;;;;;;;;6264023;22;20063;-95
2023/11/14 09:58:49;;;;;;;3.75;1.55;;;;;;;;;;6228660;23;20036;-94
2023/11/14 10:01:34;;;;;;;5.75;1.98;;;;;;;;;;6198403;23;20004;-96
2023/11/14 10:04:00;;;;;;;2.47;1.60;;;;;;;;;;6201756;23;20005;-95
2023/11/14 10:06:26;;;;;;;4.35;1.92;;;;;;;;;;6195534;23;20100;-95
2023/11/14 10:08:59;;;;;;;6.57;2.40;;;;;;;;;;6194208;23;20023;-96
2023/11/14 10:18:02;;;;;;;5.13;2.25;;;;;;;;;;6218485;22;20371;-92
2023/11/14 10:20:47;;;;;;;3.70;2.05;;;;;;;;;;6193270;23;20061;-93
2023/11/14 10:23:42;;;;;;;4.20;2.97;;;;;;;;;;6204251;23;20044;-93
2023/11/14 10:34:36;;;;;;;5.30;3.72;;;;;;;;;;6219376;23;20055;-93
2023/11/14 10:37:24;;;;;;;7.50;3.40;;;;;;;;;;6192507;23;20361;-96
2023/11/14 11:24:19;;;;;;;4.53;2.50;;;;;;;;;;6251731;22;20028;-95
2023/11/14 11:30:15;;;;;;;6.03;2.83;;;;;;;;;;6250955;23;20014;-95
2023/11/14 11:35:45;;;;;;;4.53;3.30;;;;;;;;;;6249264;23;20061;-96
2023/11/14 11:47:03;;;;;;;8.50;3.67;;;;;;;;;;6285400;22;20026;-95
2023/11/14 11:50:02;;;;;;;4.63;3.20;;;;;;;;;;6271763;22;20027;-96
2023/11/14 11:58:46;;;;;;;7.00;3.50;;;;;;;;;;6249717;22;20050;-90
2023/11/14 12:01:54;;;;;;;6.60;3.15;;;;;;;;;;6260380;22;20004;-96
2023/11/14 12:07:01;;;;;;;6.53;4.03;;;;;;;;;;6226876;23;19962;-91
2023/11/14 12:09:34;;;;;;;4.50;3.17;;;;;;;;;;6226790;23;20005;-92
2023/11/14 12:23:50;;;;;;;6.00;3.40;;;;;;;;;;6234345;22;20071;-95
2023/11/14 12:26:46;;;;;;;4.78;2.85;;;;;;;;;;6255069;22;20094;-96
2023/11/14 12:29:13;;;;;;;5.22;3.00;;;;;;;;;;6257495;22;20007;-95
2023/11/14 12:31:46;;;;;;;4.45;2.92;;;;;;;;;;6248487;22;19999;-95
2023/11/14 12:34:12;;;;;;;3.78;2.80;;;;;;;;;;6255168;22;20329;-94
2023/11/14 12:36:41;;;;;;;5.15;2.30;;;;;;;;;;6253111;22;20447;-95
2023/11/14 12:39:19;;;;;;;5.82;2.55;;;;;;;;;;6253266;22;20065;-96
2023/11/14 12:42:04;;;;;;;7.28;3.58;;;;;;;;;;6253994;22;20008;-96
2023/11/14 12:44:49;;;;;;;5.35;2.67;;;;;;;;;;6259039;22;20007;-96
2023/11/14 12:56:33;;;;;;;5.97;2.67;;;;;;;;;;6295006;22;20024;-95
2023/11/14 12:59:00;;;;;;;5.25;2.05;;;;;;;;;;6250642;22;20065;-91
2023/11/14 13:01:48;;;;;;;6.80;2.50;;;;;;;;;;6259843;22;20011;-96
2023/11/14 13:04:20;;;;;;;6.25;2.28;;;;;;;;;;6260644;22;20425;-93
2023/11/14 13:15:37;;;;;;;4.97;2.50;;;;;;;;;;6278528;22;20497;-96
2023/11/14 13:21:09;;;;;;;3.85;1.70;;;;;;;;;;6216407;22;20011;-94
2023/11/14 13:23:37;;;;;;;3.70;1.77;;;;;;;;;;6191264;23;20016;-94
2023/11/14 13:26:12;;;;;;;6.60;2.35;;;;;;;;;;6190731;23;20017;-94
2023/11/14 13:28:41;;;;;;;6.68;1.85;;;;;;;;;;6191368;23;20001;-94
2023/11/14 13:31:07;;;;;;;6.97;1.88;;;;;;;;;;6190882;23;20005;-95
2023/11/14 13:33:36;;;;;;;5.90;2.03;;;;;;;;;;6191686;23;20454;-93
2023/11/14 13:36:07;;;;;;;6.53;2.13;;;;;;;;;;6191818;23;20011;-94
2023/11/14 13:38:34;;;;;;;6.18;1.85;;;;;;;;;;6202636;23;20001;-93
2023/11/14 13:41:00;;;;;;;5.20;2.22;;;;;;;;;;6191491;23;20009;-93
2023/11/14 13:43:26;;;;;;;6.40;2.08;;;;;;;;;;6191506;23;20004;-94
2023/11/14 13:46:23;;;;;;;6.38;1.75;;;;;;;;;;6192785;23;20012;-95
2023/11/14 13:52:00;;;;;;;4.22;1.80;;;;;;;;;;6263676;22;20026;-94
2023/11/14 13:54:27;;;;;;;8.18;1.50;;;;;;;;;;6252387;22;20091;-94
2023/11/14 13:56:59;;;;;;;6.93;2.90;;;;;;;;;;6255548;22;20015;-96
2023/11/14 14:05:57;;;;;;;6.43;2.05;;;;;;;;;;6272356;22;20066;-96
2023/11/14 14:11:44;;;;;;;6.68;2.10;;;;;;;;;;6219478;23;19989;-94
2023/11/14 14:14:25;;;;;;;3.67;2.03;;;;;;;;;;6219245;23;20004;-93
2023/11/14 14:20:00;;;;;;;6.32;2.10;;;;;;;;;;6221939;23;20015;-94
2023/11/14 14:22:49;;;;;;;4.25;1.95;;;;;;;;;;6220518;23;20004;-93
2023/11/14 14:25:18;;;;;;;5.05;1.95;;;;;;;;;;6223804;23;20009;-93
2023/11/14 14:27:47;;;;;;;5.97;1.70;;;;;;;;;;6234568;23;20004;-95
2023/11/14 14:36:10;;;;;;;8.63;3.83;;;;;;;;;;6230104;22;20456;-95
2023/11/14 14:38:58;;;;;;;6.10;2.13;;;;;;;;;;6253397;22;20003;-95
2023/11/14 14:49:57;;;;;;;10.57;3.60;;;;;;;;;;6279100;22;20468;-93
2023/11/14 14:52:29;;;;;;;20.33;7.95;;;;;;;;;;6216514;23;20012;-93
2023/11/14 14:58:13;;;;;;;21.87;8.97;;;;;;;;;;6255611;22;20020;-94
2023/11/14 15:00:56;;;;;;;15.85;6.13;;;;;;;;;;6230622;22;20011;-93
2023/11/14 15:15:52;;;;;;;27.13;14.15;;;;;;;;;;6216117;23;20044;-93
2023/11/14 15:18:31;;;;;;;44.78;20.13;;;;;;;;;;6190431;23;20001;-94
2023/11/14 15:23:45;;;;;;;28.30;11.95;;;;;;;;;;6247679;22;20016;-96
2023/11/14 15:26:27;;;;;;;;;;;;;;;;;;;;;
2023/11/14 15:31:44;;;;;;;30.20;10.93;;;;;;;;;;6100060;23;20282;-91
2023/11/14 15:34:22;;;;;;;28.95;11.98;;;;;;;;;;6076511;23;20385;-96
2023/11/14 15:39:43;;;;;;;42.50;21.25;;;;;;;;;;6099147;23;20021;-95
2023/11/14 15:42:10;;;;;;;57.08;27.48;;;;;;;;;;6075137;23;20027;-91
2023/11/14 15:47:18;;;;;;;42.58;20.92;;;;;;;;;;6193495;23;20017;-96
2023/11/14 15:49:44;;;;;;;56.15;25.73;;;;;;;;;;6170156;23;20399;-95
2023/11/14 15:55:23;;;;;;;41.83;19.42;;;;;;;;;;6198831;23;20037;-96
2023/11/14 15:57:56;;;;;;;44.75;19.58;;;;;;;;;;6165993;23;20422;-96
2023/11/14 16:05:31;;;;;;;35.40;16.33;;;;;;;;;;6318514;22;20000;-94
2023/11/14 16:08:19;;;;;;;28.48;13.45;;;;;;;;;;6199571;23;20374;-96
2023/11/14 16:10:45;;;;;;;18.15;7.65;;;;;;;;;;6169078;23;20084;-94
2023/11/14 16:16:07;;;;;;;16.13;4.10;;;;;;;;;;6200383;23;20075;-96
2023/11/14 16:18:35;;;;;;;14.10;7.57;;;;;;;;;;6171871;23;20012;-91
2023/11/14 16:21:02;;;;;;;13.13;4.97;;;;;;;;;;6163010;23;20029;-94
2023/11/14 16:32:15;;;;;;;6.55;1.85;;;;;;;;;;6170637;23;19994;-95
2023/11/14 16:34:49;;;;;;;5.50;1.60;;;;;;;;;;6159249;23;20006;-94
2023/11/14 16:37:19;;;;;;;5.90;1.90;;;;;;;;;;6153967;23;20008;-94
2023/11/14 16:39:45;;;;;;;5.63;1.33;;;;;;;;;;6194042;23;20005;-93
2023/11/14 16:42:12;;;;;;;7.60;3.55;;;;;;;;;;6210324;22;20004;-93
2023/11/14 16:44:39;;;;;;;8.23;3.40;;;;;;;;;;6285466;22;20027;-93
2023/11/14 16:47:23;;;;;;;;;;;;;;;;;;;;;
2023/11/14 16:50:03;;;;;;;6.60;2.75;;;;;;;;;;6248272;22;20027;-93
2023/11/14 16:53:04;;;;;;;9.07;3.53;;;;;;;;;;6291332;22;20011;-94
2023/11/14 16:58:41;;;;;;;6.47;2.10;;;;;;;;;;6143642;23;20621;-96
2023/11/14 17:01:08;;;;;;;4.95;2.47;;;;;;;;;;6204831;23;20004;-94
2023/11/14 17:03:34;;;;;;;9.05;2.90;;;;;;;;;;6199121;23;20016;-95
2023/11/14 17:06:02;;;;;;;20.52;8.10;;;;;;;;;;6224959;23;20020;-93
2023/11/14 17:11:24;;;;;;;21.77;9.60;;;;;;;;;;6287472;22;20051;-92
2023/11/14 17:13:53;;;;;;;19.42;7.82;;;;;;;;;;6254366;22;20008;-91
2023/11/14 17:19:35;;;;;;;19.02;9.82;;;;;;;;;;6240333;22;20091;-93
2023/11/14 17:24:43;;;;;;;12.15;4.30;;;;;;;;;;6280910;22;20098;-95
2023/11/14 17:27:17;;;;;;;8.80;3.55;;;;;;;;;;6262392;22;20011;-92
2023/11/14 17:29:48;;;;;;;12.43;6.57;;;;;;;;;;6291479;22;19995;-96
2023/11/14 17:32:20;;;;;;;8.70;4.45;;;;;;;;;;6258907;22;20014;-95
2023/11/14 17:35:15;;;;;;;;;;;;;;;;;;;;;
2023/11/14 17:37:45;;;;;;;6.95;3.05;;;;;;;;;;6243292;22;20048;-94
2023/11/14 17:40:19;;;;;;;5.32;3.00;;;;;;;;;;6222925;23;20038;-92
2023/11/14 17:42:57;;;;;;;14.93;8.52;;;;;;;;;;6224343;23;20368;-96
2023/11/14 17:45:49;;;;;;;14.25;7.80;;;;;;;;;;6246902;23;20409;-95
2023/11/14 17:48:27;;;;;;;11.38;7.03;;;;;;;;;;6237737;22;20024;-95
2023/11/14 17:51:02;;;;;;;13.85;7.03;;;;;;;;;;6246302;22;20024;-96
2023/11/14 17:53:28;;;;;;;13.00;8.52;;;;;;;;;;6266475;22;20031;-93
2023/11/14 17:55:54;;;;;;;15.70;10.60;;;;;;;;;;6229003;22;21262;-93
2023/11/14 17:58:22;;;;;;;9.45;6.05;;;;;;;;;;6258466;22;20004;-96
2023/11/14 18:00:51;;;;;;;19.00;7.97;;;;;;;;;;6265919;22;20024;-94
2023/11/14 18:03:35;;;;;;;7.95;4.10;;;;;;;;;;6285440;22;20047;-96
2023/11/14 18:09:14;;;;;;;9.90;5.03;;;;;;;;;;6256754;22;20401;-93
2023/11/14 18:11:50;;;;;;;9.05;4.10;;;;;;;;;;6231971;22;20058;-93
2023/11/14 18:14:19;;;;;;;8.60;4.47;;;;;;;;;;6230239;22;19992;-93
2023/11/14 18:16:57;;;;;;;6.63;3.33;;;;;;;;;;6227201;23;20029;-92
2023/11/14 18:19:30;;;;;;;6.53;3.05;;;;;;;;;;6234054;23;20050;-94
2023/11/14 18:22:25;;;;;;;9.02;3.40;;;;;;;;;;6238215;22;19996;-95
2023/11/14 18:30:37;;;;;;;10.57;4.73;;;;;;;;;;6289455;22;20010;-95
2023/11/14 18:33:05;;;;;;;7.05;3.63;;;;;;;;;;6279899;22;20078;-96
2023/11/14 18:36:04;;;;;;;5.25;2.33;;;;;;;;;;6268134;22;20016;-95
2023/11/14 18:38:39;;;;;;;3.53;1.90;;;;;;;;;;6265623;22;20078;-96
2023/11/14 18:44:24;;;;;;;3.53;2.10;;;;;;;;;;6194096;23;20009;-91
2023/11/14 18:47:18;;;;;;;3.40;2.00;;;;;;;;;;6284820;22;20065;-93
2023/11/14 18:49:46;;;;;;;4.93;2.13;;;;;;;;;;6289768;22;20000;-92
2023/11/14 18:52:28;;;;;;;4.22;2.20;;;;;;;;;;6290821;22;20004;-96
2023/11/14 18:55:00;;;;;;;4.43;1.45;;;;;;;;;;6260605;22;20026;-93
2023/11/14 19:01:02;;;;;;;5.25;1.50;;;;;;;;;;6192229;23;20001;-96
2023/11/14 19:03:34;;;;;;;2.75;1.50;;;;;;;;;;6282924;22;20079;-92
2023/11/14 19:06:10;;;;;;;5.00;2.58;;;;;;;;;;6253954;22;20012;-95
2023/11/14 19:08:38;;;;;;;6.85;3.45;;;;;;;;;;6256249;22;20372;-93
2023/11/14 19:11:08;;;;;;;6.75;3.40;;;;;;;;;;6243951;23;20024;-94
2023/11/14 19:16:40;;;;;;;5.20;3.10;;;;;;;;;;6190826;23;20019;-92
2023/11/14 19:19:09;;;;;;;6.55;3.72;;;;;;;;;;6163092;23;20431;-93
2023/11/14 19:21:36;;;;;;;8.32;3.22;;;;;;;;;;6162988;23;20036;-94
2023/11/14 19:24:18;;;;;;;7.53;3.33;;;;;;;;;;6190190;23;20358;-94
2023/11/14 19:26:48;;;;;;;6.60;3.28;;;;;;;;;;6224703;22;20084;-96
2023/11/14 19:29:18;;;;;;;5.75;3.47;;;;;;;;;;6274020;22;20038;-93
2023/11/14 19:31:59;;;;;;;6.13;2.47;;;;;;;;;;6278280;22;20008;-95
2023/11/14 19:34:46;;;;;;;4.65;2.50;;;;;;;;;;6263008;22;19988;-95
2023/11/14 19:37:19;;;;;;;20.45;3.40;;;;;;;;;;6262319;22;20016;-93
2023/11/14 19:42:50;;;;;;;4.95;2.08;;;;;;;;;;6154971;22;20073;-95
2023/11/14 19:46:02;;;;;;;;;;;;;;;;;;;;;
2023/11/14 19:48:41;;;;;;;3.00;1.60;;;;;;;;;;6057623;23;20412;-92
2023/11/14 20:00:40;;;;;;;4.23;1.07;;;;;;;;;;6046791;23;20040;-96
2023/11/14 20:03:08;;;;;;;3.90;1.02;;;;;;;;;;6024128;23;20063;-94
2023/11/14 20:05:46;;;;;;;4.22;1.40;;;;;;;;;;6022502;23;20109;-93
2023/11/14 20:11:56;;;;;;;2.08;1.25;;;;;;;;;;5990265;24;20016;-95
2023/11/14 20:14:23;;;;;;;4.32;1.48;;;;;;;;;;6026535;23;20011;-94
2023/11/14 20:16:52;;;;;;;2.33;1.30;;;;;;;;;;6135934;22;20015;-94
2023/11/14 20:19:37;;;;;;;2.38;1.20;;;;;;;;;;6257761;22;20000;-94
2023/11/14 20:22:19;;;;;;;3.80;1.27;;;;;;;;;;6259460;22;20011;-96
2023/11/14 20:24:45;;;;;;;4.75;1.20;;;;;;;;;;6256085;22;20038;-95
2023/11/14 20:36:22;;;;;;;2.45;1.30;;;;;;;;;;6287180;22;20092;-96
2023/11/14 20:41:28;;;;;;;4.97;1.70;;;;;;;;;;6254132;22;20004;-95
2023/11/14 20:44:02;;;;;;;4.68;2.90;;;;;;;;;;6224562;23;20008;-95
2023/11/14 20:46:28;;;;;;;3.00;1.92;;;;;;;;;;6223172;23;20019;-95
2023/11/14 20:48:54;;;;;;;4.93;1.88;;;;;;;;;;6223185;23;20004;-95
2023/11/14 20:51:25;;;;;;;5.32;2.42;;;;;;;;;;6223801;23;20012;-94
2023/11/14 20:53:55;;;;;;;3.03;1.95;;;;;;;;;;6221673;23;20031;-94
2023/11/14 20:56:29;;;;;;;4.07;1.58;;;;;;;;;;6222352;23;20008;-93
2023/11/14 20:58:57;;;;;;;3.50;1.60;;;;;;;;;;6172891;23;20016;-94
2023/11/14 21:01:25;;;;;;;2.85;1.90;;;;;;;;;;6221517;23;20008;-96
2023/11/14 21:03:55;;;;;;;3.95;1.55;;;;;;;;;;6222607;23;20004;-95
2023/11/14 21:06:24;;;;;;;4.25;1.48;;;;;;;;;;6222997;23;20490;-96
2023/11/14 21:08:53;;;;;;;4.72;1.70;;;;;;;;;;6222461;23;20001;-94
2023/11/14 21:11:20;;;;;;;2.45;1.48;;;;;;;;;;6170101;23;20011;-95
2023/11/14 21:13:47;;;;;;;3.50;1.17;;;;;;;;;;6218202;23;20028;-95
2023/11/14 21:16:14;;;;;;;4.07;2.00;;;;;;;;;;6221019;23;20000;-95
2023/11/14 21:18:41;;;;;;;3.42;1.30;;;;;;;;;;6243031;22;20009;-96
2023/11/14 21:21:07;;;;;;;2.22;1.35;;;;;;;;;;6231859;23;20007;-96
2023/11/14 21:23:35;;;;;;;4.82;1.20;;;;;;;;;;6216863;23;20009;-96
2023/11/14 21:26:02;;;;;;;5.32;0.90;;;;;;;;;;6216492;23;20020;-96
2023/11/14 21:28:28;;;;;;;2.75;1.15;;;;;;;;;;6215538;23;20039;-94
2023/11/14 21:31:06;;;;;;;3.75;1.20;;;;;;;;;;6216430;23;20092;-95
2023/11/14 21:33:33;;;;;;;1.63;1.02;;;;;;;;;;6216827;23;20000;-96
2023/11/14 21:35:59;;;;;;;2.53;1.50;;;;;;;;;;6216515;23;20004;-96
2023/11/14 21:38:25;;;;;;;2.70;1.20;;;;;;;;;;6216650;23;20013;-96
2023/11/14 21:40:52;;;;;;;2.08;0.80;;;;;;;;;;6216252;23;20059;-96
2023/11/14 21:43:21;;;;;;;2.55;1.58;;;;;;;;;;6233175;23;20456;-94
2023/11/14 21:45:49;;;;;;;4.78;2.10;;;;;;;;;;6216605;23;20024;-94
2023/11/14 21:48:20;;;;;;;3.40;1.95;;;;;;;;;;6216406;23;20016;-95
2023/11/14 21:50:48;;;;;;;3.95;1.27;;;;;;;;;;6216238;23;20001;-94
2023/11/14 21:53:18;;;;;;;2.60;1.38;;;;;;;;;;6191862;23;20005;-94
2023/11/14 21:55:50;;;;;;;3.17;1.52;;;;;;;;;;6216745;23;20009;-94
2023/11/14 21:58:16;;;;;;;4.20;1.52;;;;;;;;;;6217286;23;20430;-94
2023/11/14 22:00:48;;;;;;;3.70;0.93;;;;;;;;;;6216546;23;20005;-96
2023/11/14 22:03:15;;;;;;;3.42;1.30;;;;;;;;;;6217513;23;20009;-96
2023/11/14 22:11:37;;;;;;;3.10;1.20;;;;;;;;;;6280523;22;20483;-96
2023/11/14 22:14:04;;;;;;;1.83;0.80;;;;;;;;;;6253727;22;20082;-94
2023/11/14 22:17:05;;;;;;;2.58;0.90;;;;;;;;;;6253999;22;19995;-94
2023/11/14 22:19:48;;;;;;;3.55;1.00;;;;;;;;;;6188485;23;20111;-96
2023/11/14 22:22:41;;;;;;;3.13;1.60;;;;;;;;;;6252409;22;20421;-96
2023/11/14 22:33:48;;;;;;;3.38;0.82;;;;;;;;;;6252950;23;20007;-95
2023/11/14 22:36:17;;;;;;;3.65;0.95;;;;;;;;;;6223051;23;20032;-96
2023/11/14 22:42:07;;;;;;;3.03;1.02;;;;;;;;;;6247995;23;20095;-95
2023/11/14 22:44:57;;;;;;;2.25;1.13;;;;;;;;;;6220588;23;20011;-96
2023/11/14 22:47:39;;;;;;;2.65;0.80;;;;;;;;;;6217460;23;20489;-95
2023/11/14 22:50:07;;;;;;;1.40;0.73;;;;;;;;;;6221482;23;20000;-95
2023/11/14 22:52:33;;;;;;;2.95;0.65;;;;;;;;;;6221059;23;20004;-93
2023/11/14 22:55:02;;;;;;;2.38;0.90;;;;;;;;;;6220967;23;20059;-95
2023/11/14 22:57:28;;;;;;;1.38;0.85;;;;;;;;;;6220641;23;20004;-94
2023/11/14 23:00:00;;;;;;;1.90;0.80;;;;;;;;;;6220977;23;20065;-93
2023/11/14 23:02:26;;;;;;;1.80;1.30;;;;;;;;;;6223131;23;20006;-93
2023/11/14 23:04:53;;;;;;;1.08;0.80;;;;;;;;;;6243665;23;20059;-94
2023/11/14 23:07:25;;;;;;;3.05;1.38;;;;;;;;;;6237936;23;20012;-95
2023/11/14 23:09:52;;;;;;;1.48;0.90;;;;;;;;;;6220646;23;20004;-94
2023/11/14 23:12:19;;;;;;;1.70;0.90;;;;;;;;;;6271028;22;20008;-94
2023/11/14 23:14:47;;;;;;;1.30;0.85;;;;;;;;;;6271521;22;20007;-95
2023/11/14 23:17:50;;;;;;;1.15;0.60;;;;;;;;;;6271750;22;20011;-95
2023/11/14 23:20:16;;;;;;;1.67;0.60;;;;;;;;;;6271671;22;20004;-96
2023/11/14 23:22:42;;;;;;;1.35;0.57;;;;;;;;;;6271453;22;20008;-95
2023/11/14 23:25:09;;;;;;;1.10;0.65;;;;;;;;;;6271560;22;20055;-96
2023/11/14 23:27:35;;;;;;;1.02;0.70;;;;;;;;;;6269173;22;20027;-95
2023/11/14 23:30:05;;;;;;;0.82;0.60;;;;;;;;;;6271410;22;20038;-96
2023/11/14 23:32:31;;;;;;;1.23;0.50;;;;;;;;;;6239913;23;20040;-95
2023/11/14 23:34:57;;;;;;;2.25;0.80;;;;;;;;;;6245607;23;20004;-95
2023/11/14 23:37:33;;;;;;;1.02;0.65;;;;;;;;;;6271738;22;20004;-94
2023/11/14 23:40:33;;;;;;;2.90;0.60;;;;;;;;;;6242086;23;20011;-96
2023/11/14 23:43:02;;;;;;;1.73;0.73;;;;;;;;;;6166909;23;20004;-95
2023/11/14 23:45:31;;;;;;;2.92;0.63;;;;;;;;;;6271117;22;20012;-96
2023/11/14 23:47:59;;;;;;;3.88;0.90;;;;;;;;;;6271765;22;20000;-95
2023/11/14 23:50:25;;;;;;;1.98;0.68;;;;;;;;;;6271084;22;20015;-95
2023/11/14 23:52:51;;;;;;;1.20;0.70;;;;;;;;;;6272014;22;20036;-95
2023/11/14 23:55:17;;;;;;;2.60;0.88;;;;;;;;;;6271519;22;20000;-95
2023/11/14 23:57:45;;;;;;;1.30;0.73;;;;;;;;;;6271577;22;20008;-95
